CheckWX is a tool to help pilots better visualize weather data.  It is not intended as a substitute for an official pre-flight weather briefing.

11:28:11 UTC

CYKF METAR
Waterloo Airport
Kitchener, Canada
Current

28 mins ago

CYKF 221100Z AUTO 30004KT 9SM SCT170 BKN190 15/12 A2995 RMK SLP140 DENSITY ALT 1200FT
Observed
Aug-22 @ 11:00 UTC
Wind
  • 300° at 4 KTS
Visibility
9 SM
Flight Rules
VFR
Cloud Levels
  • Scattered at 17,000' AGL
  • Broken at 19,000' AGL
Temperature
15°C / 59°F
Dewpoint
12°C / 54°F
Humidity
82%
Altimeter
29.95" Hg
Pressure
1014.22 hPa
Previous

1 hour ago

CYKF 221000Z AUTO 30005KT 9SM OVC190 15/12 A2993 RMK SLP134 DENSITY ALT 1200FT
Observed
Aug-22 @ 10:00 UTC
Wind
  • 300° at 5 KTS
Visibility
9 SM
Flight Rules
VFR
Cloud Levels
  • Overcast at 19,000' AGL
Temperature
15°C / 59°F
Dewpoint
12°C / 54°F
Humidity
82%
Altimeter
29.93" Hg
Pressure
1013.52 hPa
Previous

2 hours ago

CYKF 220900Z AUTO 31005KT 9SM SCT190 BKN220 15/12 A2992 RMK SLP130 DENSITY ALT 1300FT
Observed
Aug-22 @ 09:00 UTC
Wind
  • 310° at 5 KTS
Visibility
9 SM
Flight Rules
VFR
Cloud Levels
  • Scattered at 19,000' AGL
  • Broken at 22,000' AGL
Temperature
15°C / 59°F
Dewpoint
12°C / 54°F
Humidity
82%
Altimeter
29.92" Hg
Pressure
1013.22 hPa